createdAt,value
2017-07-20T00:02:47.744Z,4
2017-07-20T00:02:56.965Z,4
2017-07-20T00:03:57.498Z,4
2017-07-20T00:04:57.435Z,4
2017-07-20T00:05:57.370Z,4
2017-07-20T00:06:57.312Z,4
2017-07-20T00:07:57.247Z,4
2017-07-20T00:08:57.179Z,4
2017-07-20T00:09:57.134Z,4
2017-07-20T00:10:56.764Z,4
2017-07-20T00:11:57.019Z,4
2017-07-20T00:12:56.930Z,4
2017-07-20T00:13:56.873Z,4
2017-07-20T00:14:56.505Z,4
2017-07-20T00:15:56.140Z,4
2017-07-20T00:16:56.388Z,4
2017-07-20T00:17:56.624Z,4
2017-07-20T00:18:56.587Z,4
2017-07-20T00:19:56.196Z,4
2017-07-20T00:20:56.687Z,4
2017-07-20T00:21:56.402Z,4
2017-07-20T00:22:56.309Z,4
2017-07-20T00:23:55.963Z,4
2017-07-20T00:24:56.201Z,4
2017-07-20T00:25:56.130Z,4
2017-07-20T00:26:56.071Z,4
2017-07-20T00:27:56.001Z,4
2017-07-20T00:28:55.944Z,4
2017-07-20T00:29:55.576Z,4
2017-07-20T00:30:55.813Z,4
2017-07-20T00:31:55.760Z,4
2017-07-20T00:32:55.696Z,4
2017-07-20T00:33:55.628Z,4
2017-07-20T00:34:55.565Z,4
2017-07-20T00:35:55.517Z,4
2017-07-20T00:36:55.138Z,4
2017-07-20T00:37:55.381Z,4
2017-07-20T00:38:55.319Z,4
2017-07-20T00:39:55.259Z,4
2017-07-20T00:40:54.894Z,4
2017-07-20T00:41:55.144Z,4
2017-07-20T00:42:55.071Z,4
2017-07-20T00:43:55.009Z,4
2017-07-20T00:44:54.652Z,4
2017-07-20T00:45:54.892Z,4
2017-07-20T00:46:54.215Z,4
2017-07-20T00:47:54.455Z,4
2017-07-20T00:48:54.702Z,4
2017-07-20T00:49:54.349Z,4
2017-07-20T00:50:54.592Z,4
2017-07-20T00:51:54.509Z,4
2017-07-20T00:52:54.453Z,4
2017-07-20T00:53:54.080Z,4
2017-07-20T00:54:54.332Z,4
2017-07-20T00:55:53.961Z,4
2017-07-20T00:56:54.202Z,4
2017-07-20T00:57:54.139Z,4
2017-07-20T00:58:54.089Z,4
2017-07-20T00:59:54.017Z,4
2017-07-20T01:00:53.953Z,4
2017-07-20T01:01:53.892Z,4
2017-07-20T01:02:53.828Z,4
2017-07-20T01:03:53.765Z,4
2017-07-20T01:04:53.710Z,4
2017-07-20T01:05:53.644Z,4
2017-07-20T01:06:53.582Z,4
2017-07-20T01:07:53.520Z,4
2017-07-20T01:08:53.152Z,4
2017-07-20T01:09:53.390Z,4
2017-07-20T01:10:53.338Z,4
2017-07-20T01:11:53.270Z,4
2017-07-20T01:12:53.207Z,4
2017-07-20T01:13:53.148Z,4
2017-07-20T01:14:53.100Z,4
2017-07-20T01:15:53.025Z,4
2017-07-20T01:16:52.961Z,4
2017-07-20T01:17:52.897Z,4
2017-07-20T01:18:52.835Z,4
2017-07-20T01:19:52.775Z,4
2017-07-20T01:20:52.410Z,4
2017-07-20T01:21:52.657Z,4
2017-07-20T01:22:52.608Z,4
2017-07-20T01:23:52.264Z,4
2017-07-20T01:24:52.468Z,4
2017-07-20T01:25:52.404Z,4
2017-07-20T01:26:52.338Z,4
2017-07-20T01:27:52.276Z,4
2017-07-20T01:28:52.216Z,4
2017-07-20T01:29:52.154Z,4
2017-07-20T01:30:52.097Z,4
2017-07-20T01:31:52.038Z,4
2017-07-20T01:32:51.969Z,4
2017-07-20T01:33:51.603Z,4
2017-07-20T01:34:53.043Z,4
2017-07-20T01:35:51.779Z,4
2017-07-20T01:36:51.724Z,4
2017-07-20T01:37:51.667Z,4
2017-07-20T01:38:51.601Z,4
2017-07-20T01:39:51.534Z,4
2017-07-20T01:40:51.469Z,4
2017-07-20T01:41:51.410Z,4
2017-07-20T01:42:51.359Z,4
2017-07-20T01:43:51.485Z,4
2017-07-20T01:44:51.232Z,4
2017-07-20T01:45:50.555Z,4
2017-07-20T01:46:51.100Z,4
2017-07-20T01:47:51.046Z,4
2017-07-20T01:48:50.673Z,4
2017-07-20T01:49:50.607Z,4
2017-07-20T01:50:50.848Z,4
2017-07-20T01:51:50.924Z,4
2017-07-20T01:52:50.731Z,4
2017-07-20T01:53:50.682Z,4
2017-07-20T01:54:50.601Z,4
2017-07-20T01:55:50.538Z,4
2017-07-20T01:56:50.476Z,4
2017-07-20T01:57:50.418Z,4
2017-07-20T01:58:50.357Z,4
2017-07-20T01:59:50.315Z,4
2017-07-20T02:00:50.247Z,4
2017-07-20T02:01:49.887Z,4
2017-07-20T02:02:50.118Z,4
2017-07-20T02:03:50.054Z,4
2017-07-20T02:04:49.697Z,4
2017-07-20T02:05:49.938Z,4
2017-07-20T02:06:49.569Z,4
2017-07-20T02:07:49.813Z,4
2017-07-20T02:08:49.745Z,4
2017-07-20T02:09:49.389Z,4
2017-07-20T02:10:49.330Z,4
2017-07-20T02:11:49.560Z,4
2017-07-20T02:12:49.497Z,4
2017-07-20T02:13:49.433Z,4
2017-07-20T02:14:49.072Z,4
2017-07-20T02:15:49.301Z,4
2017-07-20T02:16:49.262Z,4
2017-07-20T02:17:49.191Z,4
2017-07-20T02:18:48.826Z,4
2017-07-20T02:19:49.090Z,4
2017-07-20T02:20:49.003Z,4
2017-07-20T02:21:48.964Z,4
2017-07-20T02:22:48.873Z,4
2017-07-20T02:23:48.514Z,4
2017-07-20T02:24:48.758Z,4
2017-07-20T02:25:48.692Z,4
2017-07-20T02:26:48.623Z,4
2017-07-20T02:27:48.564Z,4
2017-07-20T02:28:48.214Z,4
2017-07-20T02:29:48.452Z,4
2017-07-20T02:30:48.399Z,4
2017-07-20T02:31:48.354Z,4
2017-07-20T02:32:48.247Z,4
2017-07-20T02:33:48.188Z,4
2017-07-20T02:34:48.125Z,4
2017-07-20T02:35:48.063Z,4
2017-07-20T02:36:48.005Z,4
2017-07-20T02:37:47.935Z,4
2017-07-20T02:38:47.874Z,4
2017-07-20T02:39:47.810Z,4
2017-07-20T02:40:47.747Z,4
2017-07-20T02:41:47.691Z,4
2017-07-20T02:42:47.630Z,4
2017-07-20T02:43:47.560Z,4
2017-07-20T02:44:47.500Z,4
2017-07-20T02:45:47.443Z,4
2017-07-20T02:46:47.075Z,4
2017-07-20T02:47:47.319Z,4
2017-07-20T02:48:46.949Z,4
2017-07-20T02:49:47.192Z,4
2017-07-20T02:50:47.131Z,4
2017-07-20T02:51:47.072Z,4
2017-07-20T02:52:46.699Z,4
2017-07-20T02:53:46.942Z,4
2017-07-20T02:54:46.882Z,4
2017-07-20T02:55:46.827Z,4
2017-07-20T02:56:46.757Z,4
2017-07-20T02:57:46.697Z,4
2017-07-20T02:58:46.331Z,4
2017-07-20T02:59:46.572Z,4
2017-07-20T03:00:46.521Z,4
2017-07-20T03:01:46.445Z,4
2017-07-20T03:02:46.389Z,4
2017-07-20T03:03:46.335Z,4
2017-07-20T03:04:46.265Z,4
2017-07-20T03:05:46.200Z,4
2017-07-20T03:06:46.138Z,4
2017-07-20T03:07:46.072Z,4
2017-07-20T03:08:46.029Z,4
2017-07-20T03:09:45.648Z,4
2017-07-20T03:10:45.890Z,4
2017-07-20T03:11:45.224Z,4
2017-07-20T03:12:45.768Z,4
2017-07-20T03:13:45.398Z,4
2017-07-20T03:14:45.645Z,4
2017-07-20T03:15:45.579Z,4
2017-07-20T03:16:45.517Z,4
2017-07-20T03:17:45.453Z,4
2017-07-20T03:18:45.086Z,4
2017-07-20T03:19:45.330Z,8
2017-07-20T03:20:45.266Z,8
2017-07-20T03:21:45.207Z,8
2017-07-20T03:22:45.349Z,8
2017-07-20T03:23:45.081Z,8
2017-07-20T03:24:44.720Z,8
2017-07-20T03:25:44.958Z,8
2017-07-20T03:26:44.609Z,8
2017-07-20T03:27:44.833Z,4
2017-07-20T03:28:44.470Z,4
2017-07-20T03:29:44.715Z,4
2017-07-20T03:30:44.654Z,4
2017-07-20T03:31:44.590Z,4
2017-07-20T03:32:44.521Z,4
2017-07-20T03:33:44.464Z,4
2017-07-20T03:34:44.136Z,4
2017-07-20T03:35:44.339Z,4
2017-07-20T03:36:44.279Z,4
2017-07-20T03:37:44.215Z,4
2017-07-20T03:38:43.848Z,4
2017-07-20T03:39:43.489Z,4
2017-07-20T03:40:44.029Z,4
2017-07-20T03:41:43.967Z,4
2017-07-20T03:42:43.909Z,4
2017-07-20T03:43:43.851Z,4
2017-07-20T03:44:43.776Z,4
2017-07-20T03:45:43.718Z,4
2017-07-20T03:46:43.666Z,4
2017-07-20T03:47:43.593Z,8
2017-07-20T03:48:43.530Z,8
2017-07-20T03:49:43.472Z,8
2017-07-20T03:50:43.411Z,8
2017-07-20T03:51:43.346Z,8
2017-07-20T03:52:43.290Z,8
2017-07-20T03:53:43.220Z,8
2017-07-20T03:54:43.171Z,8
2017-07-20T03:55:43.099Z,8
2017-07-20T03:56:43.036Z,8
2017-07-20T03:57:42.985Z,8
2017-07-20T03:58:42.926Z,8
2017-07-20T03:59:42.850Z,8
2017-07-20T04:00:42.787Z,8
2017-07-20T04:01:42.126Z,8
2017-07-20T04:02:42.664Z,8
2017-07-20T04:03:42.605Z,8
2017-07-20T04:04:42.237Z,12
2017-07-20T04:05:42.478Z,8
2017-07-20T04:06:42.417Z,8
2017-07-20T04:07:42.358Z,8
2017-07-20T04:08:42.289Z,8
2017-07-20T04:09:42.227Z,12
2017-07-20T04:10:41.883Z,12
2017-07-20T04:11:41.803Z,12
2017-07-20T04:12:42.043Z,12
2017-07-20T04:13:41.984Z,12
2017-07-20T04:14:41.617Z,12
2017-07-20T04:15:41.554Z,12
2017-07-20T04:16:41.798Z,12
2017-07-20T04:17:41.734Z,12
2017-07-20T04:18:41.367Z,12
2017-07-20T04:19:41.608Z,12
2017-07-20T04:20:41.550Z,12
2017-07-20T04:21:41.186Z,12
2017-07-20T04:22:41.444Z,12
2017-07-20T04:23:41.360Z,12
2017-07-20T04:24:41.297Z,12
2017-07-20T04:25:41.259Z,12
2017-07-20T04:26:41.175Z,12
2017-07-20T04:27:41.116Z,12
2017-07-20T04:28:41.054Z,12
2017-07-20T04:29:40.987Z,16
2017-07-20T04:30:40.931Z,12
2017-07-20T04:31:40.869Z,12
2017-07-20T04:32:40.801Z,16
2017-07-20T04:33:40.741Z,16
2017-07-20T04:34:40.680Z,20
2017-07-20T04:35:40.320Z,16
2017-07-20T04:36:40.258Z,20
2017-07-20T04:37:40.495Z,20
2017-07-20T04:38:40.128Z,24
2017-07-20T04:39:40.063Z,24
2017-07-20T04:40:40.304Z,36
2017-07-20T04:41:39.945Z,72
2017-07-20T04:42:40.083Z,84
2017-07-20T04:43:40.118Z,72
2017-07-20T04:44:40.058Z,80
2017-07-20T04:45:39.996Z,48
2017-07-20T04:46:39.935Z,84
2017-07-20T04:47:39.880Z,96
2017-07-20T04:48:39.511Z,92
2017-07-20T04:49:39.444Z,40
2017-07-20T04:50:39.689Z,36
2017-07-20T04:51:39.320Z,28
2017-07-20T04:52:39.564Z,28
2017-07-20T04:53:39.499Z,48
2017-07-20T04:54:39.438Z,36
2017-07-20T04:55:39.072Z,48
2017-07-20T04:56:39.315Z,96
2017-07-20T04:57:39.252Z,104
2017-07-20T04:58:39.191Z,104
2017-07-20T04:59:39.128Z,100
2017-07-20T05:00:39.071Z,96
2017-07-20T05:01:39.008Z,100
2017-07-20T05:02:38.869Z,68
2017-07-20T05:03:38.883Z,60
2017-07-20T05:04:38.814Z,96
2017-07-20T05:05:38.763Z,100
2017-07-20T05:06:38.708Z,100
2017-07-20T05:07:38.636Z,100
2017-07-20T05:08:38.568Z,100
2017-07-20T05:09:38.507Z,100
2017-07-20T05:10:38.451Z,108
2017-07-20T05:11:38.391Z,112
2017-07-20T05:12:38.017Z,112
2017-07-20T05:13:38.261Z,112
2017-07-20T05:14:38.199Z,116
2017-07-20T05:15:38.133Z,112
2017-07-20T05:16:38.079Z,116
2017-07-20T05:17:38.011Z,116
2017-07-20T05:18:37.951Z,116
2017-07-20T05:19:37.585Z,116
2017-07-20T05:20:37.524Z,124
2017-07-20T05:21:37.763Z,116
2017-07-20T05:22:37.704Z,104
2017-07-20T05:23:37.643Z,112
2017-07-20T05:24:37.575Z,100
2017-07-20T05:25:37.518Z,88
2017-07-20T05:26:37.456Z,88
2017-07-20T05:27:37.390Z,120
2017-07-20T05:28:37.326Z,116
2017-07-20T05:29:37.301Z,116
2017-07-20T05:30:37.213Z,120
2017-07-20T05:31:36.843Z,132
2017-07-20T05:32:37.079Z,128
2017-07-20T05:33:37.020Z,128
2017-07-20T05:34:36.955Z,128
2017-07-20T05:35:36.904Z,128
2017-07-20T05:36:36.222Z,128
2017-07-20T05:37:36.767Z,124
2017-07-20T05:38:36.716Z,132
2017-07-20T05:39:36.644Z,132
2017-07-20T05:40:36.585Z,128
2017-07-20T05:41:36.529Z,132
2017-07-20T05:42:36.461Z,132
2017-07-20T05:43:36.397Z,132
2017-07-20T05:44:36.335Z,132
2017-07-20T05:45:36.273Z,132
2017-07-20T05:46:35.906Z,132
2017-07-20T05:47:36.149Z,128
2017-07-20T05:48:36.089Z,124
2017-07-20T05:49:36.027Z,124
2017-07-20T05:50:35.978Z,128
2017-07-20T05:51:35.898Z,124
2017-07-20T05:52:35.836Z,124
2017-07-20T05:53:35.497Z,128
2017-07-20T05:54:35.713Z,128
2017-07-20T05:55:35.648Z,128
2017-07-20T05:56:35.593Z,128
2017-07-20T05:57:35.526Z,132
2017-07-20T05:58:35.463Z,132
2017-07-20T05:59:35.403Z,124
2017-07-20T06:00:35.038Z,128
2017-07-20T06:01:35.275Z,124
2017-07-20T06:02:34.914Z,128
2017-07-20T06:03:35.157Z,128
2017-07-20T06:04:35.093Z,116
2017-07-20T06:05:34.725Z,128
2017-07-20T06:06:34.971Z,116
2017-07-20T06:07:34.912Z,124
2017-07-20T06:08:34.844Z,120
2017-07-20T06:09:34.797Z,124
2017-07-20T06:10:34.723Z,128
2017-07-20T06:11:34.659Z,120
2017-07-20T06:12:34.294Z,124
2017-07-20T06:13:34.542Z,128
2017-07-20T06:14:34.177Z,124
2017-07-20T06:15:34.108Z,124
2017-07-20T06:16:34.362Z,120
2017-07-20T06:17:34.288Z,124
2017-07-20T06:18:33.929Z,124
2017-07-20T06:19:34.174Z,124
2017-07-20T06:20:33.806Z,128
2017-07-20T06:21:33.736Z,128
2017-07-20T06:22:33.676Z,128
2017-07-20T06:23:33.913Z,124
2017-07-20T06:24:33.547Z,136
2017-07-20T06:25:33.788Z,136
2017-07-20T06:26:33.755Z,136
2017-07-20T06:27:33.365Z,136
2017-07-20T06:28:33.302Z,136
2017-07-20T06:29:33.545Z,136
2017-07-20T06:30:33.192Z,132
2017-07-20T06:31:33.421Z,140
2017-07-20T06:32:33.353Z,136
2017-07-20T06:33:33.294Z,140
2017-07-20T06:34:33.236Z,140
2017-07-20T06:35:32.563Z,140
2017-07-20T06:36:33.116Z,144
2017-07-20T06:37:32.740Z,144
2017-07-20T06:38:32.684Z,140
2017-07-20T06:39:32.319Z,148
2017-07-20T06:40:32.892Z,244
2017-07-20T06:41:32.804Z,300
2017-07-20T06:42:32.737Z,324
2017-07-20T06:43:32.672Z,324
2017-07-20T06:44:32.059Z,300
2017-07-20T06:45:32.242Z,320
2017-07-20T06:46:32.183Z,328
2017-07-20T06:47:32.125Z,328
2017-07-20T06:48:31.751Z,324
2017-07-20T06:49:32.299Z,324
2017-07-20T06:50:31.931Z,324
2017-07-20T06:51:31.870Z,316
2017-07-20T06:52:32.110Z,324
2017-07-20T06:53:31.443Z,324
2017-07-20T06:54:31.987Z,324
2017-07-20T06:55:31.621Z,324
2017-07-20T06:56:31.862Z,304
2017-07-20T06:57:31.801Z,316
2017-07-20T06:58:31.740Z,316
2017-07-20T06:59:31.677Z,316
2017-07-20T07:00:31.616Z,312
2017-07-20T07:01:31.559Z,312
2017-07-20T07:02:30.893Z,292
2017-07-20T07:03:30.822Z,284
2017-07-20T07:04:31.385Z,284
2017-07-20T07:05:31.010Z,288
2017-07-20T07:06:30.941Z,284
2017-07-20T07:07:30.887Z,288
2017-07-20T07:08:31.119Z,276
2017-07-20T07:09:31.056Z,264
2017-07-20T07:10:30.695Z,268
2017-07-20T07:11:30.936Z,276
2017-07-20T07:12:30.570Z,292
2017-07-20T07:13:30.817Z,288
2017-07-20T07:14:30.749Z,296
2017-07-20T07:15:30.384Z,280
2017-07-20T07:16:30.631Z,256
2017-07-20T07:17:30.558Z,284
2017-07-20T07:18:30.501Z,300
2017-07-20T07:19:30.133Z,312
2017-07-20T07:20:30.379Z,316
2017-07-20T07:21:30.322Z,304
2017-07-20T07:22:29.947Z,300
2017-07-20T07:23:30.228Z,288
2017-07-20T07:24:29.840Z,252
2017-07-20T07:25:30.066Z,248
2017-07-20T07:26:29.702Z,220
2017-07-20T07:27:29.639Z,208
2017-07-20T07:28:29.580Z,208
2017-07-20T07:29:29.522Z,204
2017-07-20T07:30:29.151Z,216
2017-07-20T07:31:29.695Z,240
2017-07-20T07:32:29.343Z,284
2017-07-20T07:33:29.573Z,300
2017-07-20T07:34:29.509Z,308
2017-07-20T07:35:29.457Z,304
2017-07-20T07:36:29.384Z,308
2017-07-20T07:37:29.023Z,324
2017-07-20T07:38:29.271Z,328
2017-07-20T07:39:29.249Z,324
2017-07-20T07:40:29.143Z,332
2017-07-20T07:41:28.778Z,328
2017-07-20T07:42:28.711Z,312
2017-07-20T07:43:29.002Z,312
2017-07-20T07:44:28.591Z,312
2017-07-20T07:45:28.550Z,300
2017-07-20T07:46:28.467Z,308
2017-07-20T07:47:28.925Z,312
2017-07-20T07:48:28.658Z,300
2017-07-20T07:49:28.586Z,248
2017-07-20T07:50:28.523Z,216
2017-07-20T07:51:28.465Z,232
2017-07-20T07:52:28.411Z,248
2017-07-20T07:53:28.338Z,212
2017-07-20T07:54:28.290Z,220
2017-07-20T07:55:28.221Z,212
2017-07-20T07:56:28.155Z,152
2017-07-20T07:57:28.093Z,72
2017-07-20T07:58:28.030Z,88
2017-07-20T07:59:27.969Z,92
2017-07-20T08:00:27.909Z,88
2017-07-20T08:01:27.851Z,128
2017-07-20T08:02:27.783Z,140
2017-07-20T08:03:27.730Z,148
2017-07-20T08:04:27.661Z,152
2017-07-20T08:05:27.606Z,156
2017-07-20T08:06:27.537Z,152
2017-07-20T08:07:27.476Z,148
2017-07-20T08:08:27.416Z,140
2017-07-20T08:09:27.351Z,148
2017-07-20T08:10:27.300Z,152
2017-07-20T08:11:27.230Z,148
2017-07-20T08:12:27.195Z,144
2017-07-20T08:13:27.103Z,144
2017-07-20T08:14:26.740Z,144
2017-07-20T08:15:26.675Z,136
2017-07-20T08:16:26.915Z,140
2017-07-20T08:17:26.864Z,132
2017-07-20T08:18:26.494Z,136
2017-07-20T08:19:26.733Z,124
2017-07-20T08:20:26.683Z,136
2017-07-20T08:21:26.318Z,128
2017-07-20T08:22:26.552Z,132
2017-07-20T08:23:25.881Z,136
2017-07-20T08:24:26.433Z,132
2017-07-20T08:25:26.362Z,128
2017-07-20T08:26:25.997Z,132
2017-07-20T08:27:25.959Z,132
2017-07-20T08:28:25.887Z,132
2017-07-20T08:29:26.153Z,132
2017-07-20T08:30:26.080Z,128
2017-07-20T08:31:25.990Z,132
2017-07-20T08:32:25.326Z,128
2017-07-20T08:33:25.876Z,132
2017-07-20T08:34:25.852Z,128
2017-07-20T08:35:25.580Z,128
2017-07-20T08:36:25.591Z,128
2017-07-20T08:37:25.319Z,128
2017-07-20T08:38:25.566Z,132
2017-07-20T08:39:25.511Z,124
2017-07-20T08:40:25.138Z,120
2017-07-20T08:41:24.778Z,128
2017-07-20T08:42:25.051Z,120
2017-07-20T08:43:25.280Z,120
2017-07-20T08:44:24.891Z,120
2017-07-20T08:45:25.135Z,124
2017-07-20T08:46:25.067Z,120
2017-07-20T08:47:25.012Z,124
2017-07-20T08:48:24.945Z,124
2017-07-20T08:49:24.887Z,124
2017-07-20T08:50:24.821Z,120
2017-07-20T08:51:24.771Z,112
2017-07-20T08:52:24.708Z,100
2017-07-20T08:53:24.632Z,124
2017-07-20T08:54:24.578Z,124
2017-07-20T08:55:24.515Z,124
2017-07-20T08:56:24.454Z,120
2017-07-20T08:57:24.397Z,124
2017-07-20T08:58:24.345Z,124
2017-07-20T08:59:24.268Z,124
2017-07-20T09:00:24.222Z,124
2017-07-20T09:01:24.153Z,124
2017-07-20T09:02:24.081Z,124
2017-07-20T09:03:24.023Z,128
2017-07-20T09:04:23.965Z,128
2017-07-20T09:05:23.893Z,128
2017-07-20T09:06:23.528Z,124
2017-07-20T09:07:23.594Z,128
2017-07-20T09:08:24.402Z,132
2017-07-20T09:09:23.044Z,128
2017-07-20T09:10:23.284Z,136
2017-07-20T09:11:23.530Z,136
2017-07-20T09:12:23.471Z,124
2017-07-20T09:13:23.103Z,116
2017-07-20T09:14:23.360Z,112
2017-07-20T09:15:23.277Z,124
2017-07-20T09:16:23.215Z,124
2017-07-20T09:17:23.528Z,124
2017-07-20T09:18:23.103Z,132
2017-07-20T09:19:22.729Z,124
2017-07-20T09:20:22.971Z,128
2017-07-20T09:21:22.916Z,144
2017-07-20T09:22:22.847Z,148
2017-07-20T09:23:22.483Z,148
2017-07-20T09:24:22.730Z,144
2017-07-20T09:25:22.662Z,148
2017-07-20T09:26:22.602Z,128
2017-07-20T09:27:21.938Z,144
2017-07-20T09:28:22.476Z,144
2017-07-20T09:29:22.418Z,144
2017-07-20T09:30:22.456Z,148
2017-07-20T09:31:22.323Z,152
2017-07-20T09:32:22.237Z,152
2017-07-20T09:33:22.167Z,168
2017-07-20T09:34:22.108Z,176
2017-07-20T09:35:22.309Z,176
2017-07-20T09:36:21.986Z,176
2017-07-20T09:37:21.624Z,188
2017-07-20T09:38:21.869Z,184
2017-07-20T09:39:21.809Z,188
2017-07-20T09:40:21.432Z,184
2017-07-20T09:41:21.370Z,140
2017-07-20T09:42:21.321Z,192
2017-07-20T09:43:21.558Z,196
2017-07-20T09:44:21.195Z,200
2017-07-20T09:45:21.126Z,168
2017-07-20T09:46:21.366Z,116
2017-07-20T09:47:21.003Z,220
2017-07-20T09:48:20.939Z,224
2017-07-20T09:49:20.878Z,216
2017-07-20T09:50:20.820Z,208
2017-07-20T09:51:21.061Z,216
2017-07-20T09:52:20.997Z,224
2017-07-20T09:53:20.945Z,220
2017-07-20T09:54:20.876Z,232
2017-07-20T09:55:20.817Z,228
2017-07-20T09:56:20.754Z,224
2017-07-20T09:57:20.393Z,228
2017-07-20T09:58:20.627Z,232
2017-07-20T09:59:20.574Z,236
2017-07-20T10:00:20.505Z,236
2017-07-20T10:01:20.297Z,236
2017-07-20T10:02:20.385Z,240
2017-07-20T10:03:20.320Z,240
2017-07-20T10:04:20.262Z,248
2017-07-20T10:05:19.897Z,252
2017-07-20T10:06:19.837Z,248
2017-07-20T10:07:19.777Z,240
2017-07-20T10:08:20.018Z,244
2017-07-20T10:09:19.957Z,252
2017-07-20T10:10:19.591Z,252
2017-07-20T10:11:19.526Z,256
2017-07-20T10:12:19.480Z,256
2017-07-20T10:13:19.709Z,260
2017-07-20T10:14:19.342Z,268
2017-07-20T10:15:19.280Z,272
2017-07-20T10:16:19.522Z,276
2017-07-20T10:17:19.155Z,280
2017-07-20T10:18:19.110Z,284
2017-07-20T10:19:19.338Z,280
2017-07-20T10:20:19.287Z,284
2017-07-20T10:21:19.212Z,280
2017-07-20T10:22:19.152Z,272
2017-07-20T10:23:18.787Z,276
2017-07-20T10:24:19.026Z,284
2017-07-20T10:25:18.969Z,292
2017-07-20T10:26:18.908Z,292
2017-07-20T10:27:18.857Z,292
2017-07-20T10:28:18.485Z,296
2017-07-20T10:29:18.728Z,288
2017-07-20T10:30:18.682Z,288
2017-07-20T10:31:18.601Z,304
2017-07-20T10:32:18.238Z,300
2017-07-20T10:33:18.478Z,244
2017-07-20T10:34:18.130Z,304
2017-07-20T10:35:18.355Z,288
2017-07-20T10:36:18.392Z,280
2017-07-20T10:37:18.279Z,272
2017-07-20T10:38:18.171Z,276
2017-07-20T10:39:18.127Z,276
2017-07-20T10:40:18.047Z,280
2017-07-20T10:41:18.012Z,288
2017-07-20T10:42:17.926Z,300
2017-07-20T10:43:17.873Z,292
2017-07-20T10:44:17.502Z,296
2017-07-20T10:45:17.438Z,288
2017-07-20T10:46:17.686Z,284
2017-07-20T10:47:17.617Z,280
2017-07-20T10:48:17.553Z,284
2017-07-20T10:49:17.188Z,276
2017-07-20T10:50:17.133Z,272
2017-07-20T10:51:17.072Z,272
2017-07-20T10:52:17.309Z,276
2017-07-20T10:53:16.952Z,264
2017-07-20T10:54:17.202Z,188
2017-07-20T10:55:17.127Z,248
2017-07-20T10:56:16.768Z,76
2017-07-20T10:57:16.709Z,68
2017-07-20T10:58:16.639Z,68
2017-07-20T10:59:16.580Z,164
2017-07-20T11:00:16.823Z,92
2017-07-20T11:01:16.771Z,196
2017-07-20T11:02:16.492Z,244
2017-07-20T11:03:16.331Z,252
2017-07-20T11:04:16.722Z,248
2017-07-20T11:05:16.207Z,172
2017-07-20T11:06:15.847Z,116
2017-07-20T11:07:16.431Z,232
2017-07-20T11:08:16.061Z,88
2017-07-20T11:09:15.659Z,72
2017-07-20T11:10:16.208Z,84
2017-07-20T11:11:15.844Z,148
2017-07-20T11:12:15.479Z,228
2017-07-20T11:13:16.020Z,224
2017-07-20T11:14:15.661Z,156
2017-07-20T11:15:15.904Z,220
2017-07-20T11:16:15.535Z,220
2017-07-20T11:17:15.777Z,224
2017-07-20T11:18:15.716Z,228
2017-07-20T11:19:15.652Z,228
2017-07-20T11:20:15.694Z,224
2017-07-20T11:21:15.544Z,204
2017-07-20T11:22:15.493Z,68
2017-07-20T11:23:15.412Z,64
2017-07-20T11:24:15.395Z,60
2017-07-20T11:25:15.002Z,64
2017-07-20T11:26:14.934Z,168
2017-07-20T11:27:15.177Z,204
2017-07-20T11:28:15.103Z,208
2017-07-20T11:29:15.088Z,160
2017-07-20T11:30:14.978Z,92
2017-07-20T11:31:14.616Z,196
2017-07-20T11:32:14.553Z,212
2017-07-20T11:33:14.490Z,212
2017-07-20T11:34:14.436Z,216
2017-07-20T11:35:14.928Z,212
2017-07-20T11:36:14.322Z,216
2017-07-20T11:37:14.363Z,204
2017-07-20T11:38:14.485Z,72
2017-07-20T11:39:14.427Z,76
2017-07-20T11:40:14.064Z,196
2017-07-20T11:41:13.998Z,188
2017-07-20T11:42:13.937Z,196
2017-07-20T11:43:14.181Z,176
2017-07-20T11:44:14.125Z,192
2017-07-20T11:45:14.057Z,192
2017-07-20T11:46:13.996Z,192
2017-07-20T11:47:13.936Z,184
2017-07-20T11:48:13.883Z,188
2017-07-20T11:49:13.511Z,184
2017-07-20T11:50:13.547Z,188
2017-07-20T11:51:13.390Z,188
2017-07-20T11:52:13.322Z,152
2017-07-20T11:53:13.569Z,156
2017-07-20T11:54:13.212Z,156
2017-07-20T11:55:13.446Z,80
2017-07-20T11:56:13.088Z,96
2017-07-20T11:57:13.331Z,136
2017-07-20T11:58:13.261Z,156
2017-07-20T11:59:13.196Z,172
2017-07-20T12:00:13.246Z,172
2017-07-20T12:01:13.087Z,172
2017-07-20T12:02:13.022Z,172
2017-07-20T12:03:12.956Z,140
2017-07-20T12:04:12.892Z,80
2017-07-20T12:05:12.933Z,80
2017-07-20T12:06:12.777Z,80
2017-07-20T12:07:12.709Z,96
2017-07-20T12:08:12.643Z,184
2017-07-20T12:09:12.294Z,184
2017-07-20T12:10:12.523Z,176
2017-07-20T12:11:12.462Z,176
2017-07-20T12:12:11.498Z,172
2017-07-20T12:13:12.041Z,176
2017-07-20T12:14:12.294Z,176
2017-07-20T12:15:11.929Z,176
2017-07-20T12:16:11.702Z,172
2017-07-20T12:17:12.177Z,180
2017-07-20T12:18:11.993Z,180
2017-07-20T12:19:11.853Z,180
2017-07-20T12:20:12.123Z,180
2017-07-20T12:21:11.371Z,112
2017-07-20T12:22:11.581Z,184
2017-07-20T12:23:11.457Z,180
2017-07-20T12:24:11.491Z,180
2017-07-20T12:25:11.428Z,180
2017-07-20T12:26:11.266Z,184
2017-07-20T12:27:11.594Z,188
2017-07-20T12:28:11.542Z,132
2017-07-20T12:29:11.215Z,100
2017-07-20T12:30:11.105Z,80
2017-07-20T12:31:11.173Z,80
2017-07-20T12:32:10.991Z,88
2017-07-20T12:33:10.663Z,88
2017-07-20T12:34:10.884Z,96
2017-07-20T12:35:11.262Z,132
2017-07-20T12:36:11.062Z,108
2017-07-20T12:37:10.984Z,108
2017-07-20T12:38:10.639Z,124
2017-07-20T12:39:10.443Z,164
2017-07-20T12:40:10.885Z,136
2017-07-20T12:41:10.625Z,104
2017-07-20T12:42:10.253Z,96
2017-07-20T12:43:10.527Z,108
2017-07-20T12:44:10.433Z,208
2017-07-20T12:45:09.791Z,196
2017-07-20T12:46:10.309Z,220
2017-07-20T12:47:10.256Z,220
2017-07-20T12:48:10.192Z,216
2017-07-20T12:49:10.134Z,216
2017-07-20T12:50:10.118Z,220
2017-07-20T12:51:09.784Z,212
2017-07-20T12:52:09.638Z,204
2017-07-20T12:53:09.904Z,204
2017-07-20T12:54:09.822Z,216
2017-07-20T12:55:09.763Z,216
2017-07-20T12:56:09.695Z,216
2017-07-20T12:57:09.634Z,212
2017-07-20T12:58:09.590Z,208
2017-07-20T12:59:09.214Z,208
2017-07-20T13:00:09.468Z,204
2017-07-20T13:01:09.084Z,200
2017-07-20T13:02:09.343Z,196
2017-07-20T13:03:09.274Z,196
2017-07-20T13:04:08.904Z,192
2017-07-20T13:05:09.141Z,196
2017-07-20T13:06:09.096Z,200
2017-07-20T13:07:08.726Z,196
2017-07-20T13:08:08.964Z,192
2017-07-20T13:09:08.898Z,196
2017-07-20T13:10:08.232Z,192
2017-07-20T13:11:08.775Z,200
2017-07-20T13:12:08.713Z,200
2017-07-20T13:13:08.351Z,168
2017-07-20T13:14:08.589Z,136
2017-07-20T13:15:08.532Z,160
2017-07-20T13:16:08.168Z,148
2017-07-20T13:17:08.405Z,132
2017-07-20T13:18:08.350Z,92
2017-07-20T13:19:08.294Z,92
2017-07-20T13:20:07.621Z,100
2017-07-20T13:21:08.168Z,112
2017-07-20T13:22:08.123Z,140
2017-07-20T13:23:07.445Z,172
2017-07-20T13:24:07.975Z,128
2017-07-20T13:25:07.308Z,132
2017-07-20T13:26:07.560Z,144
2017-07-20T13:27:07.788Z,200
2017-07-20T13:28:07.426Z,188
2017-07-20T13:29:07.670Z,216
2017-07-20T13:30:07.302Z,148
2017-07-20T13:31:07.244Z,148
2017-07-20T13:32:07.486Z,180
2017-07-20T13:33:07.424Z,228
2017-07-20T13:34:07.357Z,184
2017-07-20T13:35:07.299Z,116
2017-07-20T13:36:07.279Z,132
2017-07-20T13:37:07.181Z,100
2017-07-20T13:38:06.843Z,92
2017-07-20T13:39:07.053Z,84
2017-07-20T13:40:07.011Z,80
2017-07-20T13:41:06.928Z,76
2017-07-20T13:42:06.864Z,76
2017-07-20T13:43:06.834Z,80
2017-07-20T13:44:06.445Z,104
2017-07-20T13:45:06.791Z,88
2017-07-20T13:46:06.619Z,84
2017-07-20T13:47:06.559Z,84
2017-07-20T13:48:06.498Z,88
2017-07-20T13:49:06.437Z,84
2017-07-20T13:50:06.679Z,84
2017-07-20T13:51:06.317Z,88
2017-07-20T13:52:06.257Z,156
2017-07-20T13:53:06.198Z,196
2017-07-20T13:54:05.552Z,172
2017-07-20T13:55:06.069Z,160
2017-07-20T13:56:05.705Z,200
2017-07-20T13:57:05.970Z,204
2017-07-20T13:58:05.885Z,120
2017-07-20T13:59:05.825Z,136
2017-07-20T14:00:05.764Z,156
2017-07-20T14:01:05.696Z,208
2017-07-20T14:02:05.334Z,116
2017-07-20T14:03:05.576Z,136
2017-07-20T14:04:05.522Z,92
2017-07-20T14:05:05.452Z,96
2017-07-20T14:06:05.398Z,140
2017-07-20T14:07:05.030Z,176